createdAt,value
2019-05-30T00:01:02.113Z,7.30
2019-05-30T00:03:30.926Z,7.30
2019-05-30T00:06:00.554Z,7.20
2019-05-30T00:08:29.402Z,7.20
2019-05-30T00:10:58.542Z,7.20
2019-05-30T00:13:27.676Z,7.10
2019-05-30T00:15:56.623Z,7.10
2019-05-30T00:18:25.436Z,7.00
2019-05-30T00:20:54.699Z,7.00
2019-05-30T00:23:23.524Z,7.00
2019-05-30T00:25:52.370Z,6.90
2019-05-30T00:28:21.363Z,6.90
2019-05-30T00:30:50.419Z,6.90
2019-05-30T00:33:19.187Z,6.80
2019-05-30T00:35:47.944Z,6.80
2019-05-30T00:38:16.720Z,6.70
2019-05-30T00:40:45.455Z,6.70
2019-05-30T00:43:14.505Z,6.70
2019-05-30T00:45:43.235Z,6.70
2019-05-30T00:48:12.250Z,6.60
2019-05-30T00:50:41.101Z,6.60
2019-05-30T00:53:09.922Z,6.50
2019-05-30T00:55:38.952Z,6.50
2019-05-30T00:58:07.718Z,6.50
2019-05-30T01:00:43.618Z,6.40
2019-05-30T01:03:09.023Z,6.30
2019-05-30T01:05:37.639Z,6.30
2019-05-30T01:08:07.212Z,6.30
2019-05-30T01:10:36.040Z,6.30
2019-05-30T01:13:05.220Z,6.30
2019-05-30T01:15:34.154Z,6.20
2019-05-30T01:18:03.246Z,6.20
2019-05-30T01:20:32.044Z,6.20
2019-05-30T01:23:01.282Z,6.20
2019-05-30T01:25:30.135Z,6.10
2019-05-30T01:27:59.511Z,6.10
2019-05-30T01:30:28.335Z,6.10
2019-05-30T01:32:57.628Z,6.00
2019-05-30T01:35:26.748Z,6.00
2019-05-30T01:37:55.495Z,6.00
2019-05-30T01:40:24.799Z,6.00
2019-05-30T01:42:53.935Z,6.00
2019-05-30T01:45:22.788Z,6.00
2019-05-30T01:47:51.651Z,6.00
2019-05-30T01:50:20.779Z,5.90
2019-05-30T01:52:50.016Z,5.80
2019-05-30T01:55:18.877Z,5.80
2019-05-30T01:57:47.708Z,5.70
2019-05-30T02:00:21.343Z,5.70
2019-05-30T02:02:48.951Z,5.70
2019-05-30T02:05:19.278Z,5.70
2019-05-30T02:07:48.052Z,5.70
2019-05-30T02:10:17.304Z,5.60
2019-05-30T02:12:46.624Z,5.60
2019-05-30T02:15:15.792Z,5.50
2019-05-30T02:17:44.627Z,5.50
2019-05-30T02:20:17.328Z,5.50
2019-05-30T02:22:46.105Z,5.40
2019-05-30T02:25:14.919Z,5.40
2019-05-30T02:27:43.698Z,5.40
2019-05-30T02:30:15.058Z,5.30
2019-05-30T02:32:43.746Z,5.30
2019-05-30T02:35:13.010Z,5.30
2019-05-30T02:37:41.891Z,5.20
2019-05-30T02:40:15.196Z,5.20
2019-05-30T02:42:42.970Z,5.20
2019-05-30T02:45:12.726Z,5.10
2019-05-30T02:47:41.653Z,5.10
2019-05-30T02:50:13.761Z,5.10
2019-05-30T02:52:41.732Z,5.10
2019-05-30T02:55:12.641Z,5.10
2019-05-30T02:57:41.364Z,5.10
2019-05-30T03:00:16.244Z,5.10
2019-05-30T03:02:41.484Z,5.10
2019-05-30T03:05:12.822Z,5.00
2019-05-30T03:07:41.440Z,5.00
2019-05-30T03:10:14.636Z,5.00
2019-05-30T03:12:41.545Z,5.10
2019-05-30T03:15:13.055Z,5.00
2019-05-30T03:17:40.929Z,5.10
2019-05-30T03:20:18.888Z,5.10
2019-05-30T03:22:41.001Z,5.10
2019-05-30T03:25:12.666Z,5.10
2019-05-30T03:27:40.513Z,5.10
2019-05-30T03:30:21.868Z,5.00
2019-05-30T03:33:04.070Z,5.10
2019-05-30T03:35:23.990Z,5.10
2019-05-30T03:37:41.340Z,5.10
2019-05-30T03:40:10.362Z,5.10
2019-05-30T03:42:39.259Z,5.20
2019-05-30T03:45:10.883Z,5.20
2019-05-30T03:47:42.578Z,5.30
2019-05-30T03:50:17.498Z,5.30
2019-05-30T03:52:45.920Z,5.30
2019-05-30T03:55:17.866Z,5.40
2019-05-30T03:57:52.195Z,5.50
2019-05-30T04:00:32.539Z,5.50
2019-05-30T04:03:28.569Z,5.60
2019-05-30T04:06:01.380Z,5.70
2019-05-30T04:08:32.335Z,5.70
2019-05-30T04:11:04.358Z,5.80
2019-05-30T04:13:46.022Z,5.90
2019-05-30T04:16:15.813Z,5.90
2019-05-30T04:18:44.855Z,6.10
2019-05-30T04:21:15.868Z,6.10
2019-05-30T04:23:44.427Z,6.30
2019-05-30T04:26:13.799Z,6.30
2019-05-30T04:28:42.658Z,6.40
2019-05-30T04:31:12.484Z,6.50
2019-05-30T04:33:41.833Z,6.60
2019-05-30T04:36:12.501Z,6.70
2019-05-30T04:38:41.472Z,6.90
2019-05-30T04:41:11.217Z,7.00
2019-05-30T04:43:40.589Z,7.10
2019-05-30T04:46:10.793Z,7.20
2019-05-30T04:48:40.355Z,7.40
2019-05-30T04:51:10.254Z,7.50
2019-05-30T04:53:39.910Z,7.70
2019-05-30T04:56:10.181Z,7.90
2019-05-30T04:58:42.344Z,8.10
2019-05-30T05:01:11.023Z,8.30
2019-05-30T05:03:45.728Z,8.50
2019-05-30T05:06:11.596Z,8.60
2019-05-30T05:08:40.579Z,8.90
2019-05-30T05:11:12.372Z,9.10
2019-05-30T05:13:39.857Z,9.30
2019-05-30T05:16:23.019Z,9.50
2019-05-30T05:18:39.251Z,9.80
2019-05-30T05:21:08.349Z,10.00
2019-05-30T05:23:37.260Z,10.20
2019-05-30T05:26:06.346Z,10.50
2019-05-30T05:28:35.430Z,10.60
2019-05-30T05:31:04.453Z,10.80
2019-05-30T05:33:33.230Z,10.80
2019-05-30T05:36:02.268Z,11.00
2019-05-30T05:38:31.124Z,11.10
2019-05-30T05:40:59.898Z,11.20
2019-05-30T05:43:28.775Z,11.30
2019-05-30T05:45:57.839Z,11.50
2019-05-30T05:48:26.865Z,11.50
2019-05-30T05:50:55.774Z,11.70
2019-05-30T05:53:25.194Z,11.80
2019-05-30T05:55:54.172Z,11.80
2019-05-30T05:58:24.398Z,12.10
2019-05-30T06:00:54.188Z,12.30
2019-05-30T06:03:24.156Z,12.40
2019-05-30T06:05:53.774Z,12.60
2019-05-30T06:08:23.692Z,12.60
2019-05-30T06:10:52.665Z,12.50
2019-05-30T06:13:22.776Z,12.60
2019-05-30T06:15:51.766Z,12.90
2019-05-30T06:18:20.539Z,13.10
2019-05-30T06:20:49.298Z,13.30
2019-05-30T06:23:19.416Z,13.40
2019-05-30T06:25:48.332Z,13.60
2019-05-30T06:28:17.987Z,13.80
2019-05-30T06:30:47.146Z,14.00
2019-05-30T06:33:15.883Z,14.40
2019-05-30T06:35:45.194Z,14.80
2019-05-30T06:38:14.116Z,15.10
2019-05-30T06:40:42.862Z,15.60
2019-05-30T06:43:11.578Z,16.40
2019-05-30T06:45:40.352Z,17.10
2019-05-30T06:48:09.376Z,17.40
2019-05-30T06:50:38.138Z,18.50
2019-05-30T06:53:06.907Z,19.30
2019-05-30T06:55:35.627Z,19.90
2019-05-30T06:58:04.571Z,20.70
2019-05-30T07:00:33.885Z,21.60
2019-05-30T07:03:03.961Z,21.50
2019-05-30T07:05:34.709Z,21.60
2019-05-30T07:08:03.801Z,21.90
2019-05-30T07:10:33.175Z,22.70
2019-05-30T07:13:01.996Z,23.30
2019-05-30T07:15:31.431Z,23.70
2019-05-30T07:18:00.252Z,23.30
2019-05-30T07:20:29.692Z,23.70
2019-05-30T07:22:58.705Z,24.20
2019-05-30T07:25:27.890Z,24.20
2019-05-30T07:27:56.750Z,24.60
2019-05-30T07:30:25.874Z,25.70
2019-05-30T07:32:54.960Z,25.70
2019-05-30T07:35:23.979Z,25.50
2019-05-30T07:37:52.976Z,25.60
2019-05-30T07:40:21.839Z,24.90
2019-05-30T07:42:50.998Z,25.10
2019-05-30T07:45:20.091Z,25.10
2019-05-30T07:47:48.928Z,24.70
2019-05-30T07:50:17.979Z,24.80
2019-05-30T07:52:46.782Z,24.80
2019-05-30T07:55:15.610Z,24.70
2019-05-30T07:57:44.377Z,24.90
2019-05-30T08:00:13.742Z,25.70
2019-05-30T08:02:42.647Z,25.60
2019-05-30T08:05:23.387Z,26.10
2019-05-30T08:07:42.524Z,26.00
2019-05-30T08:10:11.712Z,26.10
2019-05-30T08:12:40.487Z,26.20
2019-05-30T08:15:09.833Z,26.90
2019-05-30T08:17:38.566Z,26.80
2019-05-30T08:20:07.986Z,26.80
2019-05-30T08:22:38.200Z,27.10
2019-05-30T08:25:07.395Z,26.80
2019-05-30T08:27:36.526Z,26.70
2019-05-30T08:30:06.695Z,27.80
2019-05-30T08:32:36.851Z,28.00
2019-05-30T08:35:06.268Z,27.70
2019-05-30T08:37:35.201Z,26.80
2019-05-30T08:40:04.671Z,26.70
2019-05-30T08:42:33.659Z,27.00
2019-05-30T08:45:02.378Z,26.70
2019-05-30T08:47:31.841Z,26.90
2019-05-30T08:50:00.649Z,27.20
2019-05-30T08:52:30.389Z,27.30
2019-05-30T08:54:59.510Z,26.60
2019-05-30T08:57:28.366Z,26.30
2019-05-30T08:59:57.208Z,26.80
2019-05-30T09:02:26.021Z,27.00
2019-05-30T09:04:54.770Z,27.70
2019-05-30T09:07:23.836Z,28.00
2019-05-30T09:09:52.555Z,27.90
2019-05-30T09:12:21.380Z,27.70
2019-05-30T09:14:50.224Z,27.50
2019-05-30T09:17:19.394Z,27.30
2019-05-30T09:19:48.181Z,27.20
2019-05-30T09:22:16.941Z,28.00
2019-05-30T09:24:46.039Z,27.60
2019-05-30T09:27:14.864Z,27.10
2019-05-30T09:29:48.270Z,27.10
2019-05-30T09:32:17.175Z,27.00
2019-05-30T09:34:46.994Z,27.50
2019-05-30T09:37:15.820Z,27.20
2019-05-30T09:39:45.556Z,27.10
2019-05-30T09:42:15.228Z,27.10
2019-05-30T09:44:47.158Z,28.00
2019-05-30T09:47:14.625Z,27.70
2019-05-30T09:49:44.644Z,27.50
2019-05-30T09:52:13.588Z,28.10
2019-05-30T09:54:43.063Z,29.00
2019-05-30T09:57:13.089Z,28.70
2019-05-30T09:59:43.206Z,27.60
2019-05-30T10:02:12.257Z,27.40
2019-05-30T10:04:42.088Z,27.70
2019-05-30T10:07:12.275Z,28.30
2019-05-30T10:09:42.783Z,28.60
2019-05-30T10:12:11.955Z,27.70
2019-05-30T10:14:40.668Z,27.10
2019-05-30T10:17:09.395Z,27.20
2019-05-30T10:19:40.043Z,27.20
2019-05-30T10:22:08.853Z,28.00
2019-05-30T10:24:37.589Z,27.50
2019-05-30T10:27:06.392Z,27.20
2019-05-30T10:29:35.406Z,26.60
2019-05-30T10:32:04.823Z,26.60
2019-05-30T10:34:35.911Z,26.70
2019-05-30T10:37:06.713Z,26.80
2019-05-30T10:39:35.438Z,27.00
2019-05-30T10:42:04.384Z,26.30
2019-05-30T10:44:33.276Z,26.60
2019-05-30T10:47:02.057Z,26.70
2019-05-30T10:49:34.553Z,26.60
2019-05-30T10:52:01.310Z,26.50
2019-05-30T10:54:30.112Z,26.30
2019-05-30T10:56:58.967Z,26.30
2019-05-30T10:59:27.708Z,26.30
2019-05-30T11:01:56.725Z,26.30
2019-05-30T11:04:25.588Z,26.10
2019-05-30T11:07:27.713Z,25.60
2019-05-30T11:10:04.339Z,25.00
2019-05-30T11:12:33.400Z,25.20
2019-05-30T11:15:02.809Z,25.00
2019-05-30T11:17:31.933Z,25.00
2019-05-30T11:20:00.727Z,25.20
2019-05-30T11:22:29.549Z,25.50
2019-05-30T11:24:59.407Z,25.70
2019-05-30T11:27:28.715Z,25.90
2019-05-30T11:29:58.909Z,25.80
2019-05-30T11:32:28.004Z,25.80
2019-05-30T11:34:57.440Z,25.50
2019-05-30T11:37:26.282Z,25.00
2019-05-30T11:39:55.848Z,24.60
2019-05-30T11:42:24.768Z,23.80
2019-05-30T11:44:53.972Z,23.40
2019-05-30T11:47:23.324Z,22.70
2019-05-30T11:49:52.114Z,22.40
2019-05-30T11:52:20.838Z,22.30
2019-05-30T11:54:49.900Z,21.90
2019-05-30T11:57:18.635Z,21.80
2019-05-30T11:59:47.391Z,21.50
2019-05-30T12:02:16.187Z,21.20
2019-05-30T12:04:44.914Z,21.00
2019-05-30T12:07:13.689Z,21.00
2019-05-30T12:09:42.475Z,20.80
2019-05-30T12:12:11.348Z,20.80
2019-05-30T12:14:40.154Z,20.80
2019-05-30T12:17:08.946Z,20.90
2019-05-30T12:19:38.005Z,21.00
2019-05-30T12:22:06.973Z,21.00
2019-05-30T12:24:35.774Z,21.00
2019-05-30T12:27:04.796Z,21.00
2019-05-30T12:29:33.867Z,21.00
2019-05-30T12:32:06.375Z,20.90
2019-05-30T12:34:35.717Z,21.10
2019-05-30T12:37:04.635Z,21.20
2019-05-30T12:39:33.483Z,21.20
2019-05-30T12:42:03.337Z,21.20
2019-05-30T12:44:32.310Z,21.30
2019-05-30T12:47:01.491Z,21.30
2019-05-30T12:49:30.661Z,21.20
2019-05-30T12:52:00.616Z,20.90
2019-05-30T12:54:29.667Z,20.90
2019-05-30T12:56:58.710Z,21.10
2019-05-30T12:59:27.750Z,21.10
2019-05-30T13:01:56.816Z,21.00
2019-05-30T13:04:25.628Z,21.20
2019-05-30T13:06:55.967Z,21.20
2019-05-30T13:09:25.195Z,21.30
2019-05-30T13:11:54.301Z,21.50
2019-05-30T13:14:23.500Z,21.50
2019-05-30T13:16:52.272Z,21.60
2019-05-30T13:19:21.119Z,21.70
2019-05-30T13:21:53.649Z,21.60
2019-05-30T13:24:20.618Z,21.30
2019-05-30T13:26:49.415Z,21.30
2019-05-30T13:29:18.159Z,21.30
2019-05-30T13:31:47.069Z,21.20
2019-05-30T13:34:16.132Z,21.30
2019-05-30T13:36:45.120Z,21.30
2019-05-30T13:39:14.203Z,21.30
2019-05-30T13:41:43.069Z,21.40
2019-05-30T13:44:11.866Z,21.30
2019-05-30T13:46:41.073Z,21.20
2019-05-30T13:49:09.819Z,20.90
2019-05-30T13:51:38.799Z,20.80
2019-05-30T13:54:07.521Z,20.90
2019-05-30T13:56:36.323Z,20.80
2019-05-30T13:59:05.971Z,20.90
2019-05-30T14:01:34.890Z,20.90
2019-05-30T14:04:04.739Z,21.00
2019-05-30T14:06:34.084Z,20.90
2019-05-30T14:09:04.282Z,20.90
2019-05-30T14:11:33.263Z,20.90
2019-05-30T14:14:08.938Z,20.70
2019-05-30T14:16:37.816Z,20.70
2019-05-30T14:19:10.771Z,20.80
2019-05-30T14:21:37.586Z,20.80
2019-05-30T14:24:07.456Z,20.80
2019-05-30T14:26:36.308Z,20.80
2019-05-30T14:29:05.722Z,20.90
2019-05-30T14:31:34.705Z,20.80
2019-05-30T14:34:04.276Z,20.60
2019-05-30T14:36:33.467Z,20.60
2019-05-30T14:39:02.701Z,20.70
2019-05-30T14:41:31.780Z,20.80
2019-05-30T14:44:00.529Z,20.80
2019-05-30T14:46:29.340Z,20.90
2019-05-30T14:48:58.339Z,21.00
2019-05-30T14:51:28.775Z,21.00
2019-05-30T14:54:05.140Z,21.00
2019-05-30T14:56:34.329Z,20.90
2019-05-30T14:59:03.291Z,20.70
2019-05-30T15:01:32.273Z,20.70
2019-05-30T15:04:01.633Z,20.60
2019-05-30T15:06:30.577Z,20.50
2019-05-30T15:09:16.359Z,20.40
2019-05-30T15:11:34.053Z,20.50
2019-05-30T15:14:03.100Z,20.60
2019-05-30T15:16:32.194Z,20.60
2019-05-30T15:19:01.607Z,20.60
2019-05-30T15:21:30.511Z,20.60
2019-05-30T15:23:59.391Z,20.60
2019-05-30T15:26:28.433Z,20.60
2019-05-30T15:28:57.159Z,20.60
2019-05-30T15:31:26.182Z,20.70
2019-05-30T15:33:54.986Z,20.70
2019-05-30T15:36:24.400Z,20.70
2019-05-30T15:38:53.175Z,20.60
2019-05-30T15:41:21.954Z,20.60
2019-05-30T15:43:51.020Z,20.60
2019-05-30T15:46:19.888Z,20.60
2019-05-30T15:48:49.159Z,20.50
2019-05-30T15:51:18.879Z,20.50
2019-05-30T15:53:47.816Z,20.50
2019-05-30T15:56:17.295Z,20.50
2019-05-30T15:58:48.443Z,20.50
2019-05-30T16:01:18.020Z,20.50
2019-05-30T16:03:47.003Z,20.40
2019-05-30T16:06:22.612Z,20.40
2019-05-30T16:08:51.570Z,20.30
2019-05-30T16:11:21.591Z,20.40
2019-05-30T16:13:52.720Z,20.40
2019-05-30T16:16:36.152Z,20.40
2019-05-30T16:18:52.382Z,20.40
2019-05-30T16:21:25.199Z,20.30
2019-05-30T16:23:54.600Z,20.30
2019-05-30T16:26:23.365Z,20.30
2019-05-30T16:28:53.807Z,20.20
2019-05-30T16:31:22.548Z,20.20
2019-05-30T16:33:51.459Z,20.20
2019-05-30T16:36:22.392Z,20.20
2019-05-30T16:38:51.396Z,20.00
2019-05-30T16:41:20.473Z,20.10
2019-05-30T16:43:49.271Z,20.10
2019-05-30T16:46:18.315Z,20.10
2019-05-30T16:48:47.367Z,20.00
2019-05-30T16:51:16.674Z,20.00
2019-05-30T16:53:45.476Z,20.00
2019-05-30T16:56:15.211Z,19.90
2019-05-30T16:58:44.096Z,19.90
2019-05-30T17:01:12.896Z,19.90
2019-05-30T17:03:41.859Z,19.90
2019-05-30T17:06:10.618Z,19.90
2019-05-30T17:08:39.425Z,19.90
2019-05-30T17:11:08.297Z,19.80
2019-05-30T17:13:37.120Z,19.80
2019-05-30T17:16:06.160Z,19.80
2019-05-30T17:18:35.239Z,19.80
2019-05-30T17:21:04.046Z,19.80
2019-05-30T17:23:32.816Z,19.80
2019-05-30T17:26:03.972Z,19.70
2019-05-30T17:28:32.831Z,19.70
2019-05-30T17:31:01.777Z,19.70
2019-05-30T17:33:31.076Z,19.60
2019-05-30T17:36:00.116Z,19.60
2019-05-30T17:38:28.863Z,19.50
2019-05-30T17:40:57.726Z,19.50
2019-05-30T17:43:27.130Z,19.50
2019-05-30T17:45:56.219Z,19.40
2019-05-30T17:48:25.676Z,19.40
2019-05-30T17:50:54.755Z,19.40
2019-05-30T17:53:23.977Z,19.30
2019-05-30T17:55:59.398Z,19.20
2019-05-30T17:58:23.925Z,19.20
2019-05-30T18:00:52.844Z,19.10
2019-05-30T18:03:24.630Z,19.10
2019-05-30T18:05:53.338Z,19.10
2019-05-30T18:08:22.820Z,19.00
2019-05-30T18:10:54.021Z,18.90
2019-05-30T18:13:23.058Z,18.90
2019-05-30T18:15:52.176Z,18.80
2019-05-30T18:18:21.204Z,18.70
2019-05-30T18:20:50.011Z,18.60
2019-05-30T18:23:19.451Z,18.50
2019-05-30T18:25:48.349Z,18.40
2019-05-30T18:28:17.396Z,18.30
2019-05-30T18:30:46.707Z,18.20
2019-05-30T18:33:15.579Z,18.10
2019-05-30T18:35:44.370Z,18.00
2019-05-30T18:38:13.384Z,17.90
2019-05-30T18:40:42.227Z,17.90
2019-05-30T18:43:11.817Z,17.80
2019-05-30T18:45:41.844Z,17.60
2019-05-30T18:48:16.783Z,17.50
2019-05-30T18:50:45.739Z,17.40
2019-05-30T18:53:14.540Z,17.30
2019-05-30T18:55:43.415Z,17.10
2019-05-30T18:58:12.760Z,17.00
2019-05-30T19:00:41.733Z,16.90
2019-05-30T19:03:10.911Z,16.80
2019-05-30T19:05:40.094Z,16.70
2019-05-30T19:08:08.971Z,16.60
2019-05-30T19:10:37.982Z,16.50
2019-05-30T19:13:07.053Z,16.50
2019-05-30T19:15:36.022Z,16.40
2019-05-30T19:18:08.811Z,16.30
2019-05-30T19:20:35.979Z,16.20
2019-05-30T19:23:04.759Z,16.10
2019-05-30T19:25:33.957Z,16.00
2019-05-30T19:28:02.867Z,15.80
2019-05-30T19:30:32.871Z,15.70
2019-05-30T19:33:01.842Z,15.70
2019-05-30T19:35:31.364Z,15.60
2019-05-30T19:38:00.968Z,15.50
2019-05-30T19:40:29.893Z,15.40
2019-05-30T19:42:58.719Z,15.40
2019-05-30T19:45:31.891Z,15.30
2019-05-30T19:48:00.950Z,15.20
2019-05-30T19:50:30.447Z,15.20
2019-05-30T19:52:59.215Z,15.10
2019-05-30T19:55:29.054Z,15.10
2019-05-30T19:57:58.033Z,15.00
2019-05-30T20:00:27.221Z,15.10
2019-05-30T20:02:55.991Z,15.10
2019-05-30T20:05:25.372Z,15.10
2019-05-30T20:07:54.194Z,15.10
2019-05-30T20:10:23.451Z,15.10
2019-05-30T20:12:52.264Z,15.10
2019-05-30T20:15:21.304Z,15.10
2019-05-30T20:17:50.361Z,15.10
2019-05-30T20:20:19.234Z,15.10
2019-05-30T20:22:48.639Z,15.10
2019-05-30T20:25:17.759Z,15.10
2019-05-30T20:27:46.607Z,15.20
2019-05-30T20:30:23.303Z,15.20
2019-05-30T20:32:54.383Z,15.20
2019-05-30T20:35:23.207Z,15.20
2019-05-30T20:37:52.035Z,15.20
2019-05-30T20:40:21.041Z,15.20
2019-05-30T20:42:49.955Z,15.30
2019-05-30T20:45:19.028Z,15.30
2019-05-30T20:47:48.237Z,15.40
2019-05-30T20:50:17.373Z,15.40
2019-05-30T20:52:47.643Z,15.40
2019-05-30T20:55:17.083Z,15.40
2019-05-30T20:57:46.858Z,15.40
2019-05-30T21:00:16.697Z,15.40
2019-05-30T21:02:45.623Z,15.30
2019-05-30T21:05:14.802Z,15.30
2019-05-30T21:07:44.409Z,15.40
2019-05-30T21:10:13.559Z,15.40
2019-05-30T21:12:46.891Z,15.50
2019-05-30T21:15:15.402Z,15.50
2019-05-30T21:17:46.311Z,15.50
2019-05-30T21:20:15.982Z,15.40
2019-05-30T21:22:44.998Z,15.50
2019-05-30T21:25:14.181Z,15.50
2019-05-30T21:27:43.143Z,15.50
2019-05-30T21:30:12.355Z,15.50
2019-05-30T21:32:42.049Z,15.50
2019-05-30T21:35:11.911Z,15.50
2019-05-30T21:37:41.721Z,15.50
2019-05-30T21:40:10.985Z,15.50
2019-05-30T21:42:55.346Z,15.50
2019-05-30T21:45:10.458Z,15.40
2019-05-30T21:47:40.629Z,15.40
2019-05-30T21:50:10.175Z,15.40
2019-05-30T21:52:39.364Z,15.30
2019-05-30T21:55:08.733Z,15.30
2019-05-30T21:57:37.583Z,15.30
2019-05-30T22:00:08.545Z,15.20
2019-05-30T22:02:37.284Z,15.20
2019-05-30T22:05:06.286Z,15.20
2019-05-30T22:07:35.074Z,15.20
2019-05-30T22:10:04.724Z,15.10
2019-05-30T22:12:33.706Z,15.10
2019-05-30T22:15:02.466Z,15.10
2019-05-30T22:17:31.176Z,15.10
2019-05-30T22:19:59.983Z,15.00
2019-05-30T22:22:28.726Z,15.00
2019-05-30T22:24:57.461Z,15.00
2019-05-30T22:27:26.203Z,15.00
2019-05-30T22:29:54.994Z,15.00
2019-05-30T22:32:23.783Z,15.00
2019-05-30T22:34:52.997Z,15.00
2019-05-30T22:37:21.814Z,14.90
2019-05-30T22:39:51.022Z,14.90
2019-05-30T22:42:19.995Z,14.80
2019-05-30T22:44:50.132Z,14.80
2019-05-30T22:47:19.009Z,14.70
2019-05-30T22:49:48.683Z,14.70
2019-05-30T22:52:17.747Z,14.60
2019-05-30T22:54:47.111Z,14.60
2019-05-30T22:57:16.435Z,14.50
2019-05-30T22:59:45.200Z,14.50
2019-05-30T23:02:13.926Z,14.50
2019-05-30T23:04:42.671Z,14.50
2019-05-30T23:07:11.461Z,14.50
2019-05-30T23:09:40.523Z,14.50
2019-05-30T23:12:09.297Z,14.50
2019-05-30T23:14:38.464Z,14.50
2019-05-30T23:17:07.961Z,14.50
2019-05-30T23:19:36.801Z,14.60
2019-05-30T23:22:05.535Z,14.50
2019-05-30T23:24:34.555Z,14.50
2019-05-30T23:27:03.340Z,14.50
2019-05-30T23:29:32.180Z,14.50
2019-05-30T23:32:00.948Z,14.50
2019-05-30T23:34:29.785Z,14.40
2019-05-30T23:36:58.900Z,14.40
2019-05-30T23:39:27.642Z,14.40
2019-05-30T23:41:57.251Z,14.30
2019-05-30T23:44:26.117Z,14.20
2019-05-30T23:46:55.592Z,14.30
2019-05-30T23:49:24.363Z,14.20
2019-05-30T23:51:54.604Z,14.10
2019-05-30T23:54:23.747Z,14.10
2019-05-30T23:56:52.713Z,14.10
2019-05-30T23:59:21.446Z,14.20
